sensor_id;sensor_type;location;lat;lon;timestamp;temperature;humidity
1351;DHT22;669;50.206;9.998;2023-02-18T00:00:33;9.70;99.10
1351;DHT22;669;50.206;9.998;2023-02-18T00:03:01;9.60;99.20
1351;DHT22;669;50.206;9.998;2023-02-18T00:05:29;9.70;99.20
1351;DHT22;669;50.206;9.998;2023-02-18T00:07:57;9.70;99.00
1351;DHT22;669;50.206;9.998;2023-02-18T00:10:26;9.70;98.80
1351;DHT22;669;50.206;9.998;2023-02-18T00:12:54;9.70;98.80
1351;DHT22;669;50.206;9.998;2023-02-18T00:15:22;9.70;98.60
1351;DHT22;669;50.206;9.998;2023-02-18T00:17:49;9.80;98.60
1351;DHT22;669;50.206;9.998;2023-02-18T00:20:18;9.70;98.80
1351;DHT22;669;50.206;9.998;2023-02-18T00:22:45;9.80;98.90
1351;DHT22;669;50.206;9.998;2023-02-18T00:25:13;9.80;98.70
1351;DHT22;669;50.206;9.998;2023-02-18T00:27:42;9.80;98.80
1351;DHT22;669;50.206;9.998;2023-02-18T00:30:11;9.70;98.80
1351;DHT22;669;50.206;9.998;2023-02-18T00:32:39;9.70;99.00
1351;DHT22;669;50.206;9.998;2023-02-18T00:35:07;9.70;99.10
1351;DHT22;669;50.206;9.998;2023-02-18T00:37:35;9.60;99.50
1351;DHT22;669;50.206;9.998;2023-02-18T00:40:04;9.60;99.50
1351;DHT22;669;50.206;9.998;2023-02-18T00:42:32;9.60;99.80
1351;DHT22;669;50.206;9.998;2023-02-18T00:45:01;9.50;99.90
1351;DHT22;669;50.206;9.998;2023-02-18T00:47:29;9.50;99.90
1351;DHT22;669;50.206;9.998;2023-02-18T00:49:57;9.50;99.90
1351;DHT22;669;50.206;9.998;2023-02-18T00:52:24;9.40;99.90
1351;DHT22;669;50.206;9.998;2023-02-18T00:54:52;9.40;99.90
1351;DHT22;669;50.206;9.998;2023-02-18T00:57:20;9.40;99.90
1351;DHT22;669;50.206;9.998;2023-02-18T00:59:48;9.40;99.90
1351;DHT22;669;50.206;9.998;2023-02-18T01:02:17;9.40;99.90
1351;DHT22;669;50.206;9.998;2023-02-18T01:04:45;9.40;99.90
1351;DHT22;669;50.206;9.998;2023-02-18T01:07:13;9.40;99.90
1351;DHT22;669;50.206;9.998;2023-02-18T01:09:41;9.40;99.90
1351;DHT22;669;50.206;9.998;2023-02-18T01:12:08;9.40;99.90
1351;DHT22;669;50.206;9.998;2023-02-18T01:14:36;9.40;99.90
1351;DHT22;669;50.206;9.998;2023-02-18T01:17:04;9.40;99.90
1351;DHT22;669;50.206;9.998;2023-02-18T01:19:33;9.40;99.90
1351;DHT22;669;50.206;9.998;2023-02-18T01:22:01;9.40;99.90
1351;DHT22;669;50.206;9.998;2023-02-18T01:24:29;9.40;99.90
1351;DHT22;669;50.206;9.998;2023-02-18T01:26:57;9.40;99.80
1351;DHT22;669;50.206;9.998;2023-02-18T01:29:25;9.40;99.60
1351;DHT22;669;50.206;9.998;2023-02-18T01:31:53;9.40;99.40
1351;DHT22;669;50.206;9.998;2023-02-18T01:34:21;9.40;99.40
1351;DHT22;669;50.206;9.998;2023-02-18T01:36:50;9.50;98.80
1351;DHT22;669;50.206;9.998;2023-02-18T01:39:18;9.50;98.40
1351;DHT22;669;50.206;9.998;2023-02-18T01:41:45;9.60;98.40
1351;DHT22;669;50.206;9.998;2023-02-18T01:44:16;9.60;98.00
1351;DHT22;669;50.206;9.998;2023-02-18T01:46:44;9.50;97.90
1351;DHT22;669;50.206;9.998;2023-02-18T01:49:15;9.50;98.10
1351;DHT22;669;50.206;9.998;2023-02-18T01:51:47;9.50;98.10
1351;DHT22;669;50.206;9.998;2023-02-18T01:54:20;9.50;98.20
1351;DHT22;669;50.206;9.998;2023-02-18T01:56:52;9.50;98.20
1351;DHT22;669;50.206;9.998;2023-02-18T01:59:24;9.50;98.30
1351;DHT22;669;50.206;9.998;2023-02-18T02:01:53;9.50;98.40
1351;DHT22;669;50.206;9.998;2023-02-18T02:04:21;9.50;98.30
1351;DHT22;669;50.206;9.998;2023-02-18T02:06:49;9.50;98.40
1351;DHT22;669;50.206;9.998;2023-02-18T02:09:20;9.50;98.30
1351;DHT22;669;50.206;9.998;2023-02-18T02:12:05;9.50;98.40
1351;DHT22;669;50.206;9.998;2023-02-18T02:15:03;9.50;98.60
1351;DHT22;669;50.206;9.998;2023-02-18T02:17:39;9.50;98.50
1351;DHT22;669;50.206;9.998;2023-02-18T02:20:47;9.50;98.50
1351;DHT22;669;50.206;9.998;2023-02-18T02:23:53;9.50;98.60
1351;DHT22;669;50.206;9.998;2023-02-18T02:29:43;9.60;98.70
1351;DHT22;669;50.206;9.998;2023-02-18T02:32:31;9.60;98.50
1351;DHT22;669;50.206;9.998;2023-02-18T02:35:05;9.60;98.70
1351;DHT22;669;50.206;9.998;2023-02-18T02:37:40;9.60;98.90
1351;DHT22;669;50.206;9.998;2023-02-18T02:40:19;9.50;99.10
1351;DHT22;669;50.206;9.998;2023-02-18T02:43:01;9.50;99.40
1351;DHT22;669;50.206;9.998;2023-02-18T02:45:42;9.50;99.50
1351;DHT22;669;50.206;9.998;2023-02-18T02:48:18;9.50;99.50
1351;DHT22;669;50.206;9.998;2023-02-18T02:50:54;9.40;99.40
1351;DHT22;669;50.206;9.998;2023-02-18T02:53:27;9.50;99.50
1351;DHT22;669;50.206;9.998;2023-02-18T02:55:56;9.50;99.50
1351;DHT22;669;50.206;9.998;2023-02-18T02:58:24;9.50;99.50
1351;DHT22;669;50.206;9.998;2023-02-18T03:01:07;9.50;99.40
1351;DHT22;669;50.206;9.998;2023-02-18T03:03:50;9.50;99.30
1351;DHT22;669;50.206;9.998;2023-02-18T03:06:42;9.50;99.30
1351;DHT22;669;50.206;9.998;2023-02-18T03:09:16;9.50;99.20
1351;DHT22;669;50.206;9.998;2023-02-18T03:11:55;9.50;99.00
1351;DHT22;669;50.206;9.998;2023-02-18T03:14:28;9.50;98.90
1351;DHT22;669;50.206;9.998;2023-02-18T03:17:00;9.50;98.90
1351;DHT22;669;50.206;9.998;2023-02-18T03:19:33;9.50;98.80
1351;DHT22;669;50.206;9.998;2023-02-18T03:22:06;9.50;98.80
1351;DHT22;669;50.206;9.998;2023-02-18T03:24:37;9.50;98.80
1351;DHT22;669;50.206;9.998;2023-02-18T03:27:09;9.40;98.70
1351;DHT22;669;50.206;9.998;2023-02-18T03:29:38;9.40;98.80
1351;DHT22;669;50.206;9.998;2023-02-18T03:32:08;9.50;98.50
1351;DHT22;669;50.206;9.998;2023-02-18T03:34:41;9.50;98.30
1351;DHT22;669;50.206;9.998;2023-02-18T03:37:12;9.50;98.20
1351;DHT22;669;50.206;9.998;2023-02-18T03:39:44;9.60;98.20
1351;DHT22;669;50.206;9.998;2023-02-18T03:42:14;9.60;98.10
1351;DHT22;669;50.206;9.998;2023-02-18T03:44:42;9.60;98.10
1351;DHT22;669;50.206;9.998;2023-02-18T03:47:10;9.60;98.10
1351;DHT22;669;50.206;9.998;2023-02-18T03:49:38;9.60;98.10
1351;DHT22;669;50.206;9.998;2023-02-18T03:52:06;9.60;98.20
1351;DHT22;669;50.206;9.998;2023-02-18T03:54:35;9.60;98.40
1351;DHT22;669;50.206;9.998;2023-02-18T03:57:03;9.50;98.50
1351;DHT22;669;50.206;9.998;2023-02-18T03:59:31;9.50;98.80
1351;DHT22;669;50.206;9.998;2023-02-18T04:01:58;9.50;98.90
1351;DHT22;669;50.206;9.998;2023-02-18T04:04:27;9.40;99.00
1351;DHT22;669;50.206;9.998;2023-02-18T04:06:55;9.40;99.00
1351;DHT22;669;50.206;9.998;2023-02-18T04:09:23;9.40;99.00
1351;DHT22;669;50.206;9.998;2023-02-18T04:11:52;9.40;99.20
1351;DHT22;669;50.206;9.998;2023-02-18T04:14:20;9.40;99.40
1351;DHT22;669;50.206;9.998;2023-02-18T04:16:48;9.40;99.40
1351;DHT22;669;50.206;9.998;2023-02-18T04:19:15;9.40;99.40
1351;DHT22;669;50.206;9.998;2023-02-18T04:21:43;9.30;99.40
1351;DHT22;669;50.206;9.998;2023-02-18T04:24:11;9.40;99.40
1351;DHT22;669;50.206;9.998;2023-02-18T04:26:39;9.30;99.40
1351;DHT22;669;50.206;9.998;2023-02-18T04:29:09;9.30;99.50
1351;DHT22;669;50.206;9.998;2023-02-18T04:31:36;9.30;99.60
1351;DHT22;669;50.206;9.998;2023-02-18T04:34:04;9.30;99.70
1351;DHT22;669;50.206;9.998;2023-02-18T04:36:33;9.20;99.70
1351;DHT22;669;50.206;9.998;2023-02-18T04:39:01;9.20;99.80
1351;DHT22;669;50.206;9.998;2023-02-18T04:41:29;9.20;99.80
1351;DHT22;669;50.206;9.998;2023-02-18T04:43:57;9.20;99.90
1351;DHT22;669;50.206;9.998;2023-02-18T04:46:27;9.10;99.90
1351;DHT22;669;50.206;9.998;2023-02-18T04:48:55;9.10;99.90
1351;DHT22;669;50.206;9.998;2023-02-18T04:51:23;9.10;99.90
1351;DHT22;669;50.206;9.998;2023-02-18T04:53:51;9.10;99.90
1351;DHT22;669;50.206;9.998;2023-02-18T04:56:19;9.10;99.90
1351;DHT22;669;50.206;9.998;2023-02-18T04:58:47;9.10;99.80
1351;DHT22;669;50.206;9.998;2023-02-18T05:01:15;9.10;99.60
1351;DHT22;669;50.206;9.998;2023-02-18T05:03:44;9.10;99.40
1351;DHT22;669;50.206;9.998;2023-02-18T05:06:12;9.10;99.30
1351;DHT22;669;50.206;9.998;2023-02-18T05:08:40;9.10;99.30
1351;DHT22;669;50.206;9.998;2023-02-18T05:11:08;9.20;99.20
1351;DHT22;669;50.206;9.998;2023-02-18T05:13:36;9.20;99.00
1351;DHT22;669;50.206;9.998;2023-02-18T05:16:04;9.20;98.90
1351;DHT22;669;50.206;9.998;2023-02-18T05:18:33;9.30;99.00
1351;DHT22;669;50.206;9.998;2023-02-18T05:21:02;9.30;98.80
1351;DHT22;669;50.206;9.998;2023-02-18T05:23:30;9.30;98.70
1351;DHT22;669;50.206;9.998;2023-02-18T05:25:59;9.30;98.70
1351;DHT22;669;50.206;9.998;2023-02-18T05:28:27;9.30;98.60
1351;DHT22;669;50.206;9.998;2023-02-18T05:30:54;9.30;98.50
1351;DHT22;669;50.206;9.998;2023-02-18T05:33:22;9.30;98.50
1351;DHT22;669;50.206;9.998;2023-02-18T05:35:50;9.30;98.90
1351;DHT22;669;50.206;9.998;2023-02-18T05:38:20;9.30;98.60
1351;DHT22;669;50.206;9.998;2023-02-18T05:40:48;9.30;98.60
1351;DHT22;669;50.206;9.998;2023-02-18T05:43:15;9.30;98.70
1351;DHT22;669;50.206;9.998;2023-02-18T05:45:43;9.20;98.70
1351;DHT22;669;50.206;9.998;2023-02-18T05:48:11;9.30;98.90
1351;DHT22;669;50.206;9.998;2023-02-18T05:50:40;9.30;98.90
1351;DHT22;669;50.206;9.998;2023-02-18T05:53:08;9.30;99.10
1351;DHT22;669;50.206;9.998;2023-02-18T05:55:37;9.20;99.30
1351;DHT22;669;50.206;9.998;2023-02-18T05:58:05;9.20;99.30
1351;DHT22;669;50.206;9.998;2023-02-18T06:00:33;9.20;99.70
1351;DHT22;669;50.206;9.998;2023-02-18T06:03:01;9.20;99.90
1351;DHT22;669;50.206;9.998;2023-02-18T06:05:29;9.20;99.90
1351;DHT22;669;50.206;9.998;2023-02-18T06:07:57;9.10;99.90
1351;DHT22;669;50.206;9.998;2023-02-18T06:10:25;9.10;99.90
1351;DHT22;669;50.206;9.998;2023-02-18T06:12:54;9.00;99.90
1351;DHT22;669;50.206;9.998;2023-02-18T06:15:22;9.00;99.90
1351;DHT22;669;50.206;9.998;2023-02-18T06:17:50;9.00;99.90
1351;DHT22;669;50.206;9.998;2023-02-18T06:20:18;8.90;99.90
1351;DHT22;669;50.206;9.998;2023-02-18T06:22:46;9.00;99.90
1351;DHT22;669;50.206;9.998;2023-02-18T06:25:14;8.90;99.90
1351;DHT22;669;50.206;9.998;2023-02-18T06:27:42;8.90;99.90
1351;DHT22;669;50.206;9.998;2023-02-18T06:30:12;9.00;99.90
1351;DHT22;669;50.206;9.998;2023-02-18T06:32:40;9.00;99.90
1351;DHT22;669;50.206;9.998;2023-02-18T06:35:08;9.00;99.90
1351;DHT22;669;50.206;9.998;2023-02-18T06:37:36;9.00;99.90
1351;DHT22;669;50.206;9.998;2023-02-18T06:40:05;9.00;99.90
1351;DHT22;669;50.206;9.998;2023-02-18T06:42:33;9.00;99.90
1351;DHT22;669;50.206;9.998;2023-02-18T06:45:01;9.00;99.90
1351;DHT22;669;50.206;9.998;2023-02-18T06:47:33;9.00;99.90
1351;DHT22;669;50.206;9.998;2023-02-18T06:50:02;9.00;99.90
1351;DHT22;669;50.206;9.998;2023-02-18T06:52:31;8.90;99.90
1351;DHT22;669;50.206;9.998;2023-02-18T06:55:00;8.90;99.90
1351;DHT22;669;50.206;9.998;2023-02-18T06:57:28;8.90;99.90
1351;DHT22;669;50.206;9.998;2023-02-18T06:59:55;9.00;99.90
1351;DHT22;669;50.206;9.998;2023-02-18T07:02:23;9.00;99.90
1351;DHT22;669;50.206;9.998;2023-02-18T07:04:53;9.00;99.90
1351;DHT22;669;50.206;9.998;2023-02-18T07:07:21;9.00;99.90
1351;DHT22;669;50.206;9.998;2023-02-18T07:09:49;9.00;99.90
1351;DHT22;669;50.206;9.998;2023-02-18T07:12:17;9.10;99.90
1351;DHT22;669;50.206;9.998;2023-02-18T07:14:44;9.10;99.90
1351;DHT22;669;50.206;9.998;2023-02-18T07:17:13;9.10;99.90
1351;DHT22;669;50.206;9.998;2023-02-18T07:19:40;9.10;99.90
1351;DHT22;669;50.206;9.998;2023-02-18T07:22:10;9.10;99.90
1351;DHT22;669;50.206;9.998;2023-02-18T07:24:38;9.10;99.90
1351;DHT22;669;50.206;9.998;2023-02-18T07:27:05;9.00;99.90
1351;DHT22;669;50.206;9.998;2023-02-18T07:29:33;9.00;99.90
1351;DHT22;669;50.206;9.998;2023-02-18T07:32:01;9.00;99.90
1351;DHT22;669;50.206;9.998;2023-02-18T07:34:29;9.00;99.90
1351;DHT22;669;50.206;9.998;2023-02-18T07:36:57;9.00;99.90
1351;DHT22;669;50.206;9.998;2023-02-18T07:39:26;8.90;99.90
1351;DHT22;669;50.206;9.998;2023-02-18T07:41:54;8.90;99.90
1351;DHT22;669;50.206;9.998;2023-02-18T07:44:22;8.90;99.90
1351;DHT22;669;50.206;9.998;2023-02-18T07:46:53;8.90;99.90
1351;DHT22;669;50.206;9.998;2023-02-18T07:49:21;8.90;99.90
1351;DHT22;669;50.206;9.998;2023-02-18T07:51:49;8.90;99.90
1351;DHT22;669;50.206;9.998;2023-02-18T07:54:17;8.90;99.80
1351;DHT22;669;50.206;9.998;2023-02-18T07:56:47;8.90;99.70
1351;DHT22;669;50.206;9.998;2023-02-18T07:59:14;9.00;99.70
1351;DHT22;669;50.206;9.998;2023-02-18T08:01:43;9.00;99.30
1351;DHT22;669;50.206;9.998;2023-02-18T08:04:12;9.00;98.60
1351;DHT22;669;50.206;9.998;2023-02-18T08:06:42;9.10;98.50
1351;DHT22;669;50.206;9.998;2023-02-18T08:09:12;9.10;97.50
1351;DHT22;669;50.206;9.998;2023-02-18T08:11:41;9.20;96.60
1351;DHT22;669;50.206;9.998;2023-02-18T08:14:10;9.20;95.80
1351;DHT22;669;50.206;9.998;2023-02-18T08:16:38;9.20;96.20
1351;DHT22;669;50.206;9.998;2023-02-18T08:19:06;9.20;95.40
1351;DHT22;669;50.206;9.998;2023-02-18T08:21:34;9.30;95.40
1351;DHT22;669;50.206;9.998;2023-02-18T08:24:02;9.30;94.30
1351;DHT22;669;50.206;9.998;2023-02-18T08:26:30;9.30;94.30
1351;DHT22;669;50.206;9.998;2023-02-18T08:28:58;9.30;93.40
1351;DHT22;669;50.206;9.998;2023-02-18T08:31:28;9.40;93.50
1351;DHT22;669;50.206;9.998;2023-02-18T08:33:58;9.30;93.30
1351;DHT22;669;50.206;9.998;2023-02-18T08:36:27;9.40;93.30
1351;DHT22;669;50.206;9.998;2023-02-18T08:38:55;9.40;92.90
1351;DHT22;669;50.206;9.998;2023-02-18T08:41:23;9.40;93.00
1351;DHT22;669;50.206;9.998;2023-02-18T08:43:51;9.40;92.20
1351;DHT22;669;50.206;9.998;2023-02-18T08:46:19;9.40;91.80
1351;DHT22;669;50.206;9.998;2023-02-18T08:49:00;9.50;91.50
1351;DHT22;669;50.206;9.998;2023-02-18T08:51:28;9.60;90.90
1351;DHT22;669;50.206;9.998;2023-02-18T08:53:57;9.60;90.00
1351;DHT22;669;50.206;9.998;2023-02-18T08:56:25;9.70;89.60
1351;DHT22;669;50.206;9.998;2023-02-18T08:58:53;9.80;86.10
1351;DHT22;669;50.206;9.998;2023-02-18T09:01:21;9.90;85.80
1351;DHT22;669;50.206;9.998;2023-02-18T09:03:49;9.90;85.00
1351;DHT22;669;50.206;9.998;2023-02-18T09:06:18;9.90;84.40
1351;DHT22;669;50.206;9.998;2023-02-18T09:08:46;9.90;84.40
1351;DHT22;669;50.206;9.998;2023-02-18T09:11:14;10.00;82.10
1351;DHT22;669;50.206;9.998;2023-02-18T09:13:42;10.00;83.00
1351;DHT22;669;50.206;9.998;2023-02-18T09:16:12;10.10;80.30
1351;DHT22;669;50.206;9.998;2023-02-18T09:18:41;10.10;80.50
1351;DHT22;669;50.206;9.998;2023-02-18T09:21:11;10.10;80.10
1351;DHT22;669;50.206;9.998;2023-02-18T09:23:41;10.10;79.60
1351;DHT22;669;50.206;9.998;2023-02-18T09:26:11;10.20;79.00
1351;DHT22;669;50.206;9.998;2023-02-18T09:28:40;10.20;78.90
1351;DHT22;669;50.206;9.998;2023-02-18T09:31:09;10.20;80.40
1351;DHT22;669;50.206;9.998;2023-02-18T09:33:40;10.20;79.80
1351;DHT22;669;50.206;9.998;2023-02-18T09:36:11;10.20;80.40
1351;DHT22;669;50.206;9.998;2023-02-18T09:38:41;10.30;80.00
1351;DHT22;669;50.206;9.998;2023-02-18T09:41:23;10.30;78.80
1351;DHT22;669;50.206;9.998;2023-02-18T09:43:54;10.20;77.30
1351;DHT22;669;50.206;9.998;2023-02-18T09:46:27;10.20;78.30
1351;DHT22;669;50.206;9.998;2023-02-18T09:48:57;10.20;77.00
1351;DHT22;669;50.206;9.998;2023-02-18T09:51:28;10.30;78.50
1351;DHT22;669;50.206;9.998;2023-02-18T09:53:57;10.30;76.40
1351;DHT22;669;50.206;9.998;2023-02-18T09:56:28;10.40;76.70
1351;DHT22;669;50.206;9.998;2023-02-18T09:58:58;10.50;75.20
1351;DHT22;669;50.206;9.998;2023-02-18T10:01:31;10.50;75.90
1351;DHT22;669;50.206;9.998;2023-02-18T10:04:03;10.50;74.50
1351;DHT22;669;50.206;9.998;2023-02-18T10:06:33;10.60;73.40
1351;DHT22;669;50.206;9.998;2023-02-18T10:09:08;10.60;72.10
1351;DHT22;669;50.206;9.998;2023-02-18T10:11:42;10.60;71.30
1351;DHT22;669;50.206;9.998;2023-02-18T10:14:12;10.70;70.80
1351;DHT22;669;50.206;9.998;2023-02-18T10:16:42;10.80;70.70
1351;DHT22;669;50.206;9.998;2023-02-18T10:19:20;10.80;70.00
1351;DHT22;669;50.206;9.998;2023-02-18T10:21:49;10.70;69.10
1351;DHT22;669;50.206;9.998;2023-02-18T10:24:26;10.70;70.90
1351;DHT22;669;50.206;9.998;2023-02-18T10:26:55;10.60;72.10
1351;DHT22;669;50.206;9.998;2023-02-18T10:29:24;10.70;70.40
1351;DHT22;669;50.206;9.998;2023-02-18T10:31:56;10.80;68.10
1351;DHT22;669;50.206;9.998;2023-02-18T10:34:38;10.70;69.80
1351;DHT22;669;50.206;9.998;2023-02-18T10:37:23;10.70;69.80
1351;DHT22;669;50.206;9.998;2023-02-18T10:40:03;10.50;69.70
1351;DHT22;669;50.206;9.998;2023-02-18T10:42:40;10.50;69.70
1351;DHT22;669;50.206;9.998;2023-02-18T10:45:18;10.50;68.40
1351;DHT22;669;50.206;9.998;2023-02-18T10:47:53;10.50;69.70
1351;DHT22;669;50.206;9.998;2023-02-18T10:50:27;10.50;70.00
1351;DHT22;669;50.206;9.998;2023-02-18T10:53:00;10.50;69.70
1351;DHT22;669;50.206;9.998;2023-02-18T10:55:37;10.40;70.40
1351;DHT22;669;50.206;9.998;2023-02-18T10:58:24;10.40;70.30
1351;DHT22;669;50.206;9.998;2023-02-18T11:00:52;10.40;69.60
1351;DHT22;669;50.206;9.998;2023-02-18T11:03:22;10.40;71.20
1351;DHT22;669;50.206;9.998;2023-02-18T11:05:54;10.30;71.20
1351;DHT22;669;50.206;9.998;2023-02-18T11:08:25;10.30;71.70
1351;DHT22;669;50.206;9.998;2023-02-18T11:10:55;10.20;71.00
1351;DHT22;669;50.206;9.998;2023-02-18T11:13:26;10.20;70.40
1351;DHT22;669;50.206;9.998;2023-02-18T11:15:56;10.20;71.40
1351;DHT22;669;50.206;9.998;2023-02-18T11:18:35;10.20;72.00
1351;DHT22;669;50.206;9.998;2023-02-18T11:21:08;10.30;69.50
1351;DHT22;669;50.206;9.998;2023-02-18T11:23:48;10.30;70.90
1351;DHT22;669;50.206;9.998;2023-02-18T11:26:21;10.30;70.60
1351;DHT22;669;50.206;9.998;2023-02-18T11:28:56;10.30;70.80
1351;DHT22;669;50.206;9.998;2023-02-18T11:31:33;10.30;70.20
1351;DHT22;669;50.206;9.998;2023-02-18T11:34:13;10.30;70.00
1351;DHT22;669;50.206;9.998;2023-02-18T11:36:47;10.30;70.90
1351;DHT22;669;50.206;9.998;2023-02-18T11:39:21;10.30;70.40
1351;DHT22;669;50.206;9.998;2023-02-18T11:41:59;10.30;70.50
1351;DHT22;669;50.206;9.998;2023-02-18T11:44:41;10.40;68.80
1351;DHT22;669;50.206;9.998;2023-02-18T11:47:22;10.40;68.70
1351;DHT22;669;50.206;9.998;2023-02-18T11:53:16;10.60;68.80
1351;DHT22;669;50.206;9.998;2023-02-18T11:56:00;10.60;68.10
1351;DHT22;669;50.206;9.998;2023-02-18T11:58:44;10.60;68.00
1351;DHT22;669;50.206;9.998;2023-02-18T12:01:37;10.60;67.90
1351;DHT22;669;50.206;9.998;2023-02-18T12:04:23;10.60;68.10
1351;DHT22;669;50.206;9.998;2023-02-18T12:07:11;10.50;68.80
1351;DHT22;669;50.206;9.998;2023-02-18T12:09:50;10.50;68.30
1351;DHT22;669;50.206;9.998;2023-02-18T12:12:34;10.60;68.20
1351;DHT22;669;50.206;9.998;2023-02-18T12:15:25;10.50;67.40
1351;DHT22;669;50.206;9.998;2023-02-18T12:21:39;10.50;68.60
1351;DHT22;669;50.206;9.998;2023-02-18T12:24:55;10.50;67.70
1351;DHT22;669;50.206;9.998;2023-02-18T12:27:40;10.50;68.60
1351;DHT22;669;50.206;9.998;2023-02-18T12:30:33;10.50;68.20
1351;DHT22;669;50.206;9.998;2023-02-18T12:33:12;10.60;68.10
1351;DHT22;669;50.206;9.998;2023-02-18T12:35:51;10.60;67.40
1351;DHT22;669;50.206;9.998;2023-02-18T12:38:40;10.60;69.30
1351;DHT22;669;50.206;9.998;2023-02-18T12:41:26;10.50;69.70
1351;DHT22;669;50.206;9.998;2023-02-18T12:44:01;10.60;68.50
1351;DHT22;669;50.206;9.998;2023-02-18T12:46:46;10.50;67.70
1351;DHT22;669;50.206;9.998;2023-02-18T12:49:30;10.60;68.30
1351;DHT22;669;50.206;9.998;2023-02-18T12:52:13;10.60;68.60
1351;DHT22;669;50.206;9.998;2023-02-18T12:57:41;10.80;68.60
1351;DHT22;669;50.206;9.998;2023-02-18T13:03:41;10.80;68.20
1351;DHT22;669;50.206;9.998;2023-02-18T13:06:23;10.80;67.70
1351;DHT22;669;50.206;9.998;2023-02-18T13:09:02;10.70;67.80
1351;DHT22;669;50.206;9.998;2023-02-18T13:11:45;10.80;67.40
1351;DHT22;669;50.206;9.998;2023-02-18T13:14:18;10.70;67.90
1351;DHT22;669;50.206;9.998;2023-02-18T13:16:50;10.60;69.00
1351;DHT22;669;50.206;9.998;2023-02-18T13:19:23;10.60;69.50
1351;DHT22;669;50.206;9.998;2023-02-18T13:21:55;10.60;70.80
1351;DHT22;669;50.206;9.998;2023-02-18T13:24:30;10.40;72.00
1351;DHT22;669;50.206;9.998;2023-02-18T13:27:06;10.30;74.30
1351;DHT22;669;50.206;9.998;2023-02-18T13:29:45;10.30;74.30
1351;DHT22;669;50.206;9.998;2023-02-18T13:32:22;10.20;73.70
1351;DHT22;669;50.206;9.998;2023-02-18T13:34:59;10.20;74.30
1351;DHT22;669;50.206;9.998;2023-02-18T13:37:32;10.20;74.20
1351;DHT22;669;50.206;9.998;2023-02-18T13:40:13;10.20;74.20
1351;DHT22;669;50.206;9.998;2023-02-18T13:42:44;10.20;74.20
1351;DHT22;669;50.206;9.998;2023-02-18T13:45:33;10.30;73.90
1351;DHT22;669;50.206;9.998;2023-02-18T13:48:01;10.30;74.10
1351;DHT22;669;50.206;9.998;2023-02-18T13:50:40;10.30;74.10
1351;DHT22;669;50.206;9.998;2023-02-18T13:53:21;10.30;74.40
1351;DHT22;669;50.206;9.998;2023-02-18T13:56:02;10.30;74.90
1351;DHT22;669;50.206;9.998;2023-02-18T13:58:35;10.30;74.50
1351;DHT22;669;50.206;9.998;2023-02-18T14:01:05;10.20;75.30
1351;DHT22;669;50.206;9.998;2023-02-18T14:03:56;10.30;74.80
1351;DHT22;669;50.206;9.998;2023-02-18T14:06:28;10.30;75.50
1351;DHT22;669;50.206;9.998;2023-02-18T14:09:37;10.30;75.00
1351;DHT22;669;50.206;9.998;2023-02-18T14:12:24;10.30;75.20
1351;DHT22;669;50.206;9.998;2023-02-18T14:14:52;10.30;74.60
1351;DHT22;669;50.206;9.998;2023-02-18T14:17:33;10.20;74.90
1351;DHT22;669;50.206;9.998;2023-02-18T14:20:33;10.20;75.30
1351;DHT22;669;50.206;9.998;2023-02-18T14:23:43;10.20;75.30
1351;DHT22;669;50.206;9.998;2023-02-18T14:26:22;10.20;75.50
1351;DHT22;669;50.206;9.998;2023-02-18T14:28:55;10.20;75.20
1351;DHT22;669;50.206;9.998;2023-02-18T14:31:33;10.30;75.60
1351;DHT22;669;50.206;9.998;2023-02-18T14:37:26;10.40;75.10
1351;DHT22;669;50.206;9.998;2023-02-18T14:40:10;10.50;74.50
1351;DHT22;669;50.206;9.998;2023-02-18T14:42:46;10.50;74.50
1351;DHT22;669;50.206;9.998;2023-02-18T14:45:25;10.50;74.60
1351;DHT22;669;50.206;9.998;2023-02-18T14:48:13;10.50;74.50
1351;DHT22;669;50.206;9.998;2023-02-18T14:50:46;10.50;74.40
1351;DHT22;669;50.206;9.998;2023-02-18T14:53:19;10.50;74.60
1351;DHT22;669;50.206;9.998;2023-02-18T14:55:52;10.50;74.50
1351;DHT22;669;50.206;9.998;2023-02-18T14:58:28;10.50;75.30
1351;DHT22;669;50.206;9.998;2023-02-18T15:00:56;10.40;76.10
1351;DHT22;669;50.206;9.998;2023-02-18T15:03:26;10.40;76.10
1351;DHT22;669;50.206;9.998;2023-02-18T15:05:54;10.40;76.00
1351;DHT22;669;50.206;9.998;2023-02-18T15:08:23;10.40;76.80
1351;DHT22;669;50.206;9.998;2023-02-18T15:10:58;10.40;76.90
1351;DHT22;669;50.206;9.998;2023-02-18T15:13:30;10.40;77.90
1351;DHT22;669;50.206;9.998;2023-02-18T15:16:01;10.30;78.00
1351;DHT22;669;50.206;9.998;2023-02-18T15:18:33;10.30;78.20
1351;DHT22;669;50.206;9.998;2023-02-18T15:21:04;10.30;78.50
1351;DHT22;669;50.206;9.998;2023-02-18T15:23:34;10.20;78.90
1351;DHT22;669;50.206;9.998;2023-02-18T15:26:05;10.20;78.90
1351;DHT22;669;50.206;9.998;2023-02-18T15:28:41;10.20;79.10
1351;DHT22;669;50.206;9.998;2023-02-18T15:31:10;10.20;79.40
1351;DHT22;669;50.206;9.998;2023-02-18T15:33:42;10.20;79.60
1351;DHT22;669;50.206;9.998;2023-02-18T15:36:13;10.10;79.80
1351;DHT22;669;50.206;9.998;2023-02-18T15:38:41;10.10;79.50
1351;DHT22;669;50.206;9.998;2023-02-18T15:41:13;10.10;79.90
1351;DHT22;669;50.206;9.998;2023-02-18T15:43:51;10.10;80.20
1351;DHT22;669;50.206;9.998;2023-02-18T15:46:20;10.10;80.40
1351;DHT22;669;50.206;9.998;2023-02-18T15:48:52;10.10;81.10
1351;DHT22;669;50.206;9.998;2023-02-18T15:51:24;10.00;82.00
1351;DHT22;669;50.206;9.998;2023-02-18T15:53:54;10.00;82.40
1351;DHT22;669;50.206;9.998;2023-02-18T15:56:29;10.00;83.20
1351;DHT22;669;50.206;9.998;2023-02-18T15:59:09;10.00;83.50
1351;DHT22;669;50.206;9.998;2023-02-18T16:01:37;9.90;85.60
1351;DHT22;669;50.206;9.998;2023-02-18T16:04:05;9.90;86.00
1351;DHT22;669;50.206;9.998;2023-02-18T16:06:36;9.80;87.40
1351;DHT22;669;50.206;9.998;2023-02-18T16:09:11;9.80;87.80
1351;DHT22;669;50.206;9.998;2023-02-18T16:11:43;9.80;88.00
1351;DHT22;669;50.206;9.998;2023-02-18T16:14:28;9.70;88.10
1351;DHT22;669;50.206;9.998;2023-02-18T16:17:06;9.70;87.90
1351;DHT22;669;50.206;9.998;2023-02-18T16:19:38;9.70;88.80
1351;DHT22;669;50.206;9.998;2023-02-18T16:22:29;9.70;88.20
1351;DHT22;669;50.206;9.998;2023-02-18T16:25:06;9.70;88.70
1351;DHT22;669;50.206;9.998;2023-02-18T16:27:38;9.60;88.80
1351;DHT22;669;50.206;9.998;2023-02-18T16:30:15;9.60;88.80
1351;DHT22;669;50.206;9.998;2023-02-18T16:32:43;9.60;88.50
1351;DHT22;669;50.206;9.998;2023-02-18T16:35:12;9.60;88.70
1351;DHT22;669;50.206;9.998;2023-02-18T16:37:41;9.60;88.80
1351;DHT22;669;50.206;9.998;2023-02-18T16:40:23;9.60;88.20
1351;DHT22;669;50.206;9.998;2023-02-18T16:42:54;9.70;88.40
1351;DHT22;669;50.206;9.998;2023-02-18T16:45:30;9.60;88.60
1351;DHT22;669;50.206;9.998;2023-02-18T16:47:59;9.70;88.40
1351;DHT22;669;50.206;9.998;2023-02-18T16:50:29;9.60;88.20
1351;DHT22;669;50.206;9.998;2023-02-18T16:52:59;9.60;88.80
1351;DHT22;669;50.206;9.998;2023-02-18T16:55:28;9.60;88.50
1351;DHT22;669;50.206;9.998;2023-02-18T16:57:58;9.60;88.50
1351;DHT22;669;50.206;9.998;2023-02-18T17:00:26;9.70;88.10
1351;DHT22;669;50.206;9.998;2023-02-18T17:02:56;9.70;88.10
1351;DHT22;669;50.206;9.998;2023-02-18T17:05:26;9.70;88.10
1351;DHT22;669;50.206;9.998;2023-02-18T17:07:56;9.60;88.30
1351;DHT22;669;50.206;9.998;2023-02-18T17:10:26;9.60;88.30
1351;DHT22;669;50.206;9.998;2023-02-18T17:12:54;9.60;88.50
1351;DHT22;669;50.206;9.998;2023-02-18T17:15:28;9.60;88.50
1351;DHT22;669;50.206;9.998;2023-02-18T17:17:57;9.60;88.60
1351;DHT22;669;50.206;9.998;2023-02-18T17:20:26;9.60;88.80
1351;DHT22;669;50.206;9.998;2023-02-18T17:22:54;9.60;88.80